Time;durP1;ratioP1;P1;durP2;ratioP2;P2;SDS_P1;SDS_P2;PMS_P1;PMS_P2;Temp;Humidity;BMP_temperature;BMP_pressure;BME280_temperature;BME280_humidity;BME280_pressure;Samples;Min_cycle;Max_cycle;Signal;HPM_P1;HPM_P2
2022/12/25 00:00:19;;;;;;;3.50;1.67;;;4.70;99.90;5.90;97165.00;;;;5110925;28;20203;-87
2022/12/25 00:03:08;;;;;;;1.47;1.07;;;4.40;99.90;6.00;97160.00;;;;5108860;27;20213;-87
2022/12/25 00:05:59;;;;;;;1.50;1.23;;;6.10;99.90;5.90;97164.00;;;;5102527;28;20207;-87
2022/12/25 00:08:47;;;;;;;4.73;2.03;;;4.70;99.90;5.80;97153.00;;;;5104118;28;20199;-88
2022/12/25 00:11:36;;;;;;;2.80;1.90;;;6.00;99.90;6.00;97167.00;;;;5089915;28;20686;-87
2022/12/25 00:14:25;;;;;;;1.77;1.30;;;4.60;99.90;5.80;97167.00;;;;5101247;28;20203;-88
2022/12/25 00:17:16;;;;;;;2.70;1.63;;;4.60;99.90;5.60;97170.00;;;;5103732;28;20210;-89
2022/12/25 00:20:06;;;;;;;4.30;2.57;;;5.10;99.90;5.80;97167.00;;;;5105221;28;20214;-88
2022/12/25 00:22:56;;;;;;;3.37;2.00;;;4.50;99.90;6.00;97175.00;;;;5110199;28;20227;-87
2022/12/25 00:25:45;;;;;;;3.03;1.60;;;4.50;99.90;6.00;97175.00;;;;5110524;28;20255;-87
2022/12/25 00:28:34;;;;;;;2.53;1.43;;;4.50;99.90;5.60;97164.00;;;;5101382;27;20195;-87
2022/12/25 00:31:24;;;;;;;1.27;1.17;;;4.50;99.90;5.20;97158.00;;;;5101718;27;20302;-87
2022/12/25 00:34:15;;;;;;;3.00;1.50;;;4.40;99.90;5.20;97164.00;;;;5106688;27;20191;-86
2022/12/25 00:37:04;;;;;;;2.47;1.43;;;5.00;99.90;5.30;97173.00;;;;5098476;28;20202;-88
2022/12/25 00:39:52;;;;;;;4.00;2.47;;;4.30;99.90;5.50;97179.00;;;;5108946;28;20198;-87
2022/12/25 00:42:41;;;;;;;3.53;1.90;;;4.30;99.90;5.50;97178.00;;;;5109903;28;20202;-87
2022/12/25 00:45:30;;;;;;;6.30;1.60;;;5.00;99.90;5.50;97183.00;;;;5108304;28;20213;-87
2022/12/25 00:48:19;;;;;;;6.70;1.50;;;4.40;99.90;5.40;97179.00;;;;5109699;28;20948;-87
2022/12/25 00:51:12;;;;;;;5.27;2.00;;;4.30;99.90;5.30;97180.00;;;;5109921;28;20218;-87
2022/12/25 00:54:01;;;;;;;2.20;1.70;;;4.30;99.90;5.20;97188.00;;;;5109526;28;20579;-86
2022/12/25 00:56:50;;;;;;;5.20;1.20;;;4.20;99.90;4.80;97183.00;;;;5109294;28;20210;-87
2022/12/25 00:59:38;;;;;;;1.77;1.40;;;4.10;99.90;4.90;97186.00;;;;5110036;28;20207;-88
2022/12/25 01:02:27;;;;;;;2.07;1.87;;;5.80;99.90;4.80;97182.00;;;;5095336;28;20441;-85
2022/12/25 01:05:16;;;;;;;2.23;2.07;;;4.00;99.90;5.00;97180.00;;;;5101716;28;20237;-87
2022/12/25 01:08:06;;;;;;;2.43;1.17;;;4.00;99.90;5.20;97195.00;;;;5109325;28;20194;-87
2022/12/25 01:10:56;;;;;;;3.97;1.40;;;4.10;99.90;5.20;97200.00;;;;5107223;28;20311;-87
2022/12/25 01:13:45;;;;;;;1.70;1.60;;;4.20;99.90;4.90;97207.00;;;;5109380;28;20661;-86
2022/12/25 01:16:33;;;;;;;3.30;1.87;;;4.10;99.90;5.10;97203.00;;;;5094701;28;20513;-87
2022/12/25 01:19:22;;;;;;;1.67;1.43;;;4.10;99.90;5.20;97198.00;;;;5105824;28;20580;-87
2022/12/25 01:22:11;;;;;;;2.37;1.57;;;5.00;99.90;5.20;97210.00;;;;5098204;28;20226;-88
2022/12/25 01:25:01;;;;;;;2.20;2.00;;;4.10;99.90;5.20;97213.00;;;;5109299;28;20476;-87
2022/12/25 01:27:50;;;;;;;2.63;1.40;;;4.10;99.90;5.20;97221.00;;;;5103265;28;20229;-87
2022/12/25 01:30:40;;;;;;;4.20;1.90;;;4.10;99.90;5.20;97225.00;;;;5102494;28;20229;-87
2022/12/25 01:33:29;;;;;;;3.40;1.37;;;5.10;99.90;5.20;97231.00;;;;5106411;27;20234;-86
2022/12/25 01:36:20;;;;;;;4.70;1.87;;;4.20;99.90;5.50;97228.00;;;;5112563;28;20190;-87
2022/12/25 01:39:09;;;;;;;4.37;1.67;;;4.30;99.90;5.60;97221.00;;;;5113440;28;20295;-87
2022/12/25 01:41:59;;;;;;;3.60;2.07;;;4.30;99.90;5.50;97208.00;;;;5112563;28;20232;-86
2022/12/25 01:45:33;;;;;;;1.97;1.77;;;4.30;99.90;5.50;97202.00;;;;5111429;28;20649;-86
2022/12/25 01:48:30;;;;;;;3.13;2.20;;;4.40;99.90;5.70;97205.00;;;;5111744;28;20198;-87
2022/12/25 01:51:26;;;;;;;5.30;2.03;;;4.80;99.90;5.70;97202.00;;;;5107866;28;20598;-86
2022/12/25 01:54:20;;;;;;;2.90;1.80;;;4.90;99.90;5.50;97193.00;;;;5100389;27;20199;-86
2022/12/25 01:57:17;;;;;;;2.37;1.70;;;4.50;99.90;5.30;97193.00;;;;5097575;28;20208;-87
2022/12/25 02:00:09;;;;;;;2.27;1.73;;;4.40;99.90;5.30;97192.00;;;;5099822;27;20205;-86
2022/12/25 02:02:58;;;;;;;4.90;2.20;;;4.40;99.90;5.20;97189.00;;;;5092031;28;20683;-87
2022/12/25 02:05:48;;;;;;;2.87;1.57;;;4.30;99.90;5.20;97199.00;;;;5100976;28;20222;-87
2022/12/25 02:08:36;;;;;;;3.13;1.50;;;4.30;99.90;4.90;97199.00;;;;5118354;27;20194;-87
2022/12/25 02:14:36;;;;;;;2.40;2.03;;;4.10;99.90;5.40;97215.00;;;;5109305;28;20485;-86
2022/12/25 02:17:33;;;;;;;6.37;2.33;;;4.10;99.90;5.20;97212.00;;;;5092754;28;20203;-87
2022/12/25 02:21:01;;;;;;;3.00;2.67;;;4.20;99.90;5.40;97214.00;;;;5100660;28;20194;-87
2022/12/25 02:24:32;;;;;;;2.87;2.17;;;4.20;99.90;5.50;97205.00;;;;5103599;28;20687;-86
2022/12/25 02:27:48;;;;;;;5.07;2.60;;;4.40;99.90;5.70;97220.00;;;;5119422;27;20205;-86
2022/12/25 02:30:43;;;;;;;4.60;1.33;;;4.40;99.90;5.70;97220.00;;;;5108793;28;20210;-86
2022/12/25 02:36:53;;;;;;;1.60;1.50;;;4.50;99.90;5.90;97210.00;;;;5092269;28;20195;-86
2022/12/25 02:39:58;;;;;;;4.87;2.43;;;4.60;99.90;5.90;97207.00;;;;5105031;27;20201;-85
2022/12/25 03:08:20;;;;;;;4.83;1.97;;;4.20;99.90;5.40;97192.00;;;;5110765;28;20213;-86
2022/12/25 03:11:29;;;;;;;4.20;1.97;;;4.20;99.90;5.20;97191.00;;;;5098185;28;20273;-87
2022/12/25 03:17:26;;;;;;;1.90;1.67;;;4.20;99.90;5.50;97183.00;;;;5101114;28;20214;-86
2022/12/25 03:32:57;;;;;;;2.50;2.17;;;4.20;99.90;5.10;97168.00;;;;5117722;27;20560;-86
2022/12/25 03:36:01;;;;;;;2.93;2.10;;;4.60;99.90;4.90;97183.00;;;;5107425;28;20440;-86
2022/12/25 04:36:10;;;;;;;5.30;2.47;;;2.90;99.90;3.80;97182.00;;;;5102892;28;20413;-85
2022/12/25 04:38:58;;;;;;;3.33;2.53;;;2.90;99.90;3.90;97185.00;;;;5097370;28;20429;-86
2022/12/25 04:41:47;;;;;;;4.60;3.10;;;2.90;99.90;4.00;97187.00;;;;5096520;27;20441;-86
2022/12/25 04:44:36;;;;;;;3.30;1.97;;;4.40;99.90;3.60;97191.00;;;;5089315;28;20481;-86
2022/12/25 04:47:25;;;;;;;2.50;2.30;;;2.90;99.90;3.00;97193.00;;;;5105767;28;20966;-86
2022/12/25 04:50:15;;;;;;;4.23;1.70;;;2.70;99.90;3.20;97199.00;;;;5109944;28;20420;-86
2022/12/25 04:53:04;;;;;;;4.23;2.03;;;4.40;99.90;3.30;97200.00;;;;5109761;28;20798;-85
2022/12/25 04:56:01;;;;;;;1.87;1.77;;;2.50;99.90;3.40;97200.00;;;;5108216;28;20427;-86
2022/12/25 04:58:50;;;;;;;4.70;1.40;;;2.90;99.90;3.20;97195.00;;;;5108129;28;20423;-85
2022/12/25 05:01:39;;;;;;;3.13;2.00;;;2.50;99.90;2.80;97201.00;;;;5101087;28;20826;-85
2022/12/25 05:04:28;;;;;;;2.47;2.27;;;3.80;99.90;3.00;97195.00;;;;5105872;28;20530;-86
2022/12/25 05:07:18;;;;;;;4.07;2.67;;;2.40;99.90;3.60;97213.00;;;;5097252;28;20864;-85
2022/12/25 05:10:08;;;;;;;2.50;2.30;;;2.70;99.90;3.50;97201.00;;;;5109095;28;20448;-85
2022/12/25 05:12:57;;;;;;;1.93;1.80;;;2.50;99.90;3.10;97186.00;;;;5104921;28;20437;-86
2022/12/25 05:15:46;;;;;;;1.50;1.40;;;2.50;99.90;3.00;97183.00;;;;5100528;28;20415;-86
2022/12/25 05:18:35;;;;;;;2.77;2.33;;;2.30;99.90;3.20;97184.00;;;;5099105;28;20954;-86
2022/12/25 05:21:24;;;;;;;3.27;2.17;;;2.30;99.90;3.40;97184.00;;;;5107645;28;20456;-85
2022/12/25 05:24:14;;;;;;;2.40;2.20;;;2.30;99.90;3.30;97192.00;;;;5107915;28;20417;-85
2022/12/25 05:27:03;;;;;;;2.20;1.73;;;2.30;99.90;3.40;97195.00;;;;5112220;28;20432;-86
2022/12/25 05:29:51;;;;;;;3.60;2.80;;;2.40;99.90;3.60;97192.00;;;;5114820;28;20470;-86
2022/12/25 05:32:40;;;;;;;1.70;1.50;;;2.40;99.90;3.40;97187.00;;;;5103168;28;20440;-86
2022/12/25 05:35:29;;;;;;;2.63;1.97;;;2.60;99.90;3.30;97190.00;;;;5119510;28;20975;-86
2022/12/25 05:38:18;;;;;;;2.87;1.90;;;2.40;99.90;3.30;97185.00;;;;5097610;28;20507;-86
2022/12/25 05:41:08;;;;;;;2.73;1.43;;;2.30;99.90;2.40;97187.00;;;;5108385;28;20457;-85
2022/12/25 05:43:57;;;;;;;1.57;1.40;;;2.10;99.90;2.10;97191.00;;;;5109581;28;20428;-86
2022/12/25 05:46:46;;;;;;;3.53;2.63;;;2.70;99.90;2.30;97189.00;;;;5098956;28;20472;-86
2022/12/25 05:49:35;;;;;;;1.77;1.40;;;2.10;99.90;2.00;97204.00;;;;5097017;28;20537;-86
2022/12/25 05:52:23;;;;;;;3.63;1.30;;;1.60;99.90;2.10;97209.00;;;;5116667;28;20441;-85
2022/12/25 05:55:12;;;;;;;1.60;1.50;;;2.00;99.90;2.40;97214.00;;;;5103865;28;20424;-86
2022/12/25 05:58:03;;;;;;;2.33;1.70;;;1.60;99.90;2.60;97216.00;;;;5109068;28;20421;-86
2022/12/25 06:00:51;;;;;;;4.53;1.50;;;1.60;99.90;2.90;97213.00;;;;5097865;28;20451;-86
2022/12/25 06:03:40;;;;;;;2.70;1.77;;;2.10;99.90;3.10;97205.00;;;;5109139;28;20463;-86
2022/12/25 06:06:29;;;;;;;4.63;1.80;;;3.50;99.90;3.10;97209.00;;;;5103322;28;21014;-86
2022/12/25 06:09:18;;;;;;;2.93;2.33;;;1.90;99.90;2.60;97209.00;;;;5109318;27;20902;-86
2022/12/25 06:12:08;;;;;;;0.90;0.90;;;2.10;99.90;1.90;97212.00;;;;5088174;28;20450;-86
2022/12/25 06:14:58;;;;;;;1.57;1.47;;;1.60;99.90;1.80;97211.00;;;;5114394;28;20445;-85
2022/12/25 06:17:47;;;;;;;1.20;1.20;;;2.10;99.90;2.20;97216.00;;;;5088800;28;20448;-85
2022/12/25 06:20:36;;;;;;;2.40;2.20;;;1.40;99.90;2.20;97224.00;;;;5102162;28;20444;-85
2022/12/25 06:23:24;;;;;;;1.57;1.13;;;1.40;99.90;1.80;97218.00;;;;5099122;28;20813;-86
2022/12/25 06:26:17;;;;;;;3.77;2.80;;;1.30;99.90;1.60;97199.00;;;;5109847;27;20452;-85
2022/12/25 06:29:05;;;;;;;2.47;2.27;;;1.80;99.90;1.90;97206.00;;;;5114911;27;20425;-85
2022/12/25 06:31:56;;;;;;;1.57;1.47;;;3.80;99.90;1.80;97215.00;;;;5113882;28;21050;-85
2022/12/25 06:34:45;;;;;;;2.00;1.90;;;1.30;99.90;1.80;97219.00;;;;5098353;28;20429;-86
2022/12/25 06:37:33;;;;;;;2.53;1.83;;;1.30;99.90;2.30;97227.00;;;;5111936;28;20546;-86
2022/12/25 06:40:22;;;;;;;3.60;2.53;;;3.70;99.90;2.20;97235.00;;;;5111451;28;20421;-86
2022/12/25 06:43:11;;;;;;;3.50;2.60;;;1.60;99.90;2.30;97229.00;;;;5094217;28;20433;-85
2022/12/25 06:46:03;;;;;;;2.10;1.40;;;1.50;99.90;2.10;97237.00;;;;5104307;28;20472;-86
2022/12/25 06:48:54;;;;;;;0.90;0.90;;;2.90;99.90;2.00;97237.00;;;;5108855;28;20431;-85
2022/12/25 06:51:42;;;;;;;2.00;1.90;;;2.40;99.90;2.10;97233.00;;;;5085933;28;20812;-85
2022/12/25 06:54:31;;;;;;;1.20;1.20;;;1.30;99.90;2.20;97223.00;;;;5102097;28;20459;-85
2022/12/25 06:57:20;;;;;;;2.10;2.00;;;1.40;99.90;2.80;97234.00;;;;5112308;28;20432;-86
2022/12/25 07:00:10;;;;;;;2.60;1.90;;;1.60;99.90;3.20;97227.00;;;;5098243;28;20446;-85
2022/12/25 07:02:59;;;;;;;2.60;2.30;;;1.80;99.90;3.00;97224.00;;;;5104257;28;20420;-87
2022/12/25 07:05:49;;;;;;;2.97;2.40;;;2.00;99.90;2.90;97226.00;;;;5110789;28;20510;-85
2022/12/25 07:08:38;;;;;;;1.17;1.17;;;2.00;99.90;2.30;97241.00;;;;5097238;28;20433;-83
2022/12/25 07:11:27;;;;;;;2.33;2.13;;;1.90;99.90;1.90;97241.00;;;;5107143;27;20488;-84
2022/12/25 07:14:18;;;;;;;1.80;1.53;;;1.70;99.90;2.10;97231.00;;;;5111944;27;20877;-86
2022/12/25 07:17:11;;;;;;;3.17;2.43;;;1.90;99.90;2.50;97239.00;;;;5109768;27;20438;-86
2022/12/25 07:20:00;;;;;;;3.23;2.57;;;2.30;99.90;2.80;97256.00;;;;5094148;28;20421;-86
2022/12/25 07:22:50;;;;;;;3.07;2.27;;;2.10;99.90;2.80;97244.00;;;;5110372;27;20443;-86
2022/12/25 07:25:39;;;;;;;5.00;2.20;;;1.70;99.90;3.10;97254.00;;;;5119987;27;20420;-85
2022/12/25 07:28:29;;;;;;;1.60;1.50;;;1.90;99.90;3.10;97262.00;;;;5116029;27;20515;-85
2022/12/25 07:31:18;;;;;;;3.50;2.50;;;2.00;99.90;3.10;97260.00;;;;5106712;27;21011;-85
2022/12/25 07:34:07;;;;;;;4.23;3.40;;;2.00;99.90;3.40;97257.00;;;;5103161;27;20432;-86
2022/12/25 07:36:56;;;;;;;3.77;3.40;;;2.20;99.90;3.70;97261.00;;;;5109166;27;20795;-85
2022/12/25 07:39:46;;;;;;;3.53;1.80;;;2.30;99.90;3.50;97278.00;;;;5108017;27;20466;-86
2022/12/25 07:42:35;;;;;;;3.37;2.13;;;2.40;99.90;3.50;97279.00;;;;5105288;27;20446;-85
2022/12/25 07:45:24;;;;;;;1.67;1.57;;;2.70;99.90;3.30;97284.00;;;;5114783;27;20482;-85
2022/12/25 07:48:12;;;;;;;1.83;1.73;;;3.70;99.90;2.80;97292.00;;;;5113897;27;20431;-85
2022/12/25 07:51:06;;;;;;;1.63;1.53;;;2.60;99.90;2.90;97290.00;;;;5104292;28;20841;-84
2022/12/25 07:53:55;;;;;;;1.77;1.50;;;2.30;99.90;2.80;97289.00;;;;5097508;28;20429;-86
2022/12/25 07:56:45;;;;;;;2.13;1.60;;;2.20;99.90;2.70;97281.00;;;;5093409;28;20432;-86
2022/12/25 07:59:34;;;;;;;0.83;0.83;;;2.30;99.90;3.00;97283.00;;;;5102221;27;20444;-87
2022/12/25 08:02:27;;;;;;;3.23;2.33;;;2.20;99.90;3.20;97292.00;;;;5106650;27;20445;-86
2022/12/25 08:05:16;;;;;;;4.90;2.63;;;3.30;99.90;3.80;97291.00;;;;5105686;28;20417;-86
2022/12/25 08:08:05;;;;;;;4.27;3.20;;;2.50;99.90;3.80;97287.00;;;;5108739;27;20479;-85
2022/12/25 08:10:54;;;;;;;7.10;3.90;;;2.70;99.90;4.00;97295.00;;;;5104089;28;20457;-85
2022/12/25 08:13:44;;;;;;;65.50;34.30;;;2.90;99.90;4.20;97285.00;;;;5109709;28;20519;-86
2022/12/25 08:16:33;;;;;;;35.77;20.93;;;2.90;99.90;4.30;97294.00;;;;5097774;27;20425;-86
2022/12/25 08:19:22;;;;;;;7.57;5.53;;;5.50;99.90;4.10;97307.00;;;;5089416;28;21062;-85
2022/12/25 08:22:10;;;;;;;4.60;3.47;;;5.40;99.90;3.60;97296.00;;;;5115995;27;20439;-86
2022/12/25 08:24:59;;;;;;;2.47;2.10;;;5.80;99.90;3.70;97302.00;;;;5100876;28;20426;-86
2022/12/25 08:27:48;;;;;;;2.27;2.03;;;2.90;99.90;3.90;97295.00;;;;5106050;28;20452;-85
2022/12/25 08:30:40;;;;;;;3.77;2.40;;;3.00;99.90;4.00;97288.00;;;;5110952;27;20496;-86
2022/12/25 08:33:28;;;;;;;5.10;2.63;;;5.00;99.90;4.10;97285.00;;;;5110308;27;20436;-85
2022/12/25 08:36:18;;;;;;;2.37;2.17;;;3.00;99.90;4.50;97295.00;;;;5100917;27;20458;-86
2022/12/25 08:39:07;;;;;;;5.67;3.60;;;3.20;99.90;4.90;97306.00;;;;5100457;28;20426;-85
2022/12/25 08:41:56;;;;;;;3.67;2.33;;;3.30;99.90;5.00;97291.00;;;;5102206;27;20457;-86
2022/12/25 08:44:45;;;;;;;10.37;5.43;;;3.50;99.90;5.20;97292.00;;;;5089381;28;20425;-86
2022/12/25 08:47:35;;;;;;;11.03;6.10;;;3.80;99.90;5.30;97296.00;;;;5098740;28;20483;-86
2022/12/25 08:50:24;;;;;;;10.27;6.33;;;5.00;99.90;5.40;97293.00;;;;5114362;27;20427;-86
2022/12/25 08:53:13;;;;;;;19.93;7.90;;;5.70;99.90;5.70;97305.00;;;;5111353;27;20559;-85
2022/12/25 08:56:04;;;;;;;31.37;18.10;;;4.20;99.90;5.60;97301.00;;;;5094365;28;20434;-86
2022/12/25 08:58:53;;;;;;;9.17;4.57;;;4.30;99.90;5.40;97295.00;;;;5109076;28;20203;-86
2022/12/25 09:01:41;;;;;;;4.60;2.90;;;4.30;99.90;5.90;97309.00;;;;5104081;28;20219;-84
2022/12/25 09:07:35;;;;;;;17.33;10.37;;;4.50;99.90;6.00;97314.00;;;;5098354;27;20248;-86
2022/12/25 09:10:23;;;;;;;6.47;4.73;;;4.60;99.90;6.10;97311.00;;;;5107108;28;20285;-85
2022/12/25 09:13:12;;;;;;;10.30;6.33;;;4.60;99.90;6.10;97311.00;;;;5109012;28;20210;-85
2022/12/25 09:16:06;;;;;;;9.57;5.87;;;4.70;99.90;6.30;97304.00;;;;5107606;28;20711;-87
2022/12/25 09:18:57;;;;;;;9.30;6.07;;;4.80;99.90;6.50;97311.00;;;;5110928;28;20206;-86
2022/12/25 09:21:47;;;;;;;15.83;8.27;;;5.00;99.90;6.50;97297.00;;;;5113683;28;20221;-87
2022/12/25 09:24:38;;;;;;;18.40;10.87;;;5.10;99.90;6.90;97302.00;;;;5103483;28;20198;-86
2022/12/25 09:27:26;;;;;;;7.93;4.77;;;5.20;99.90;7.10;97303.00;;;;5112088;28;20229;-85
2022/12/25 09:30:15;;;;;;;10.93;6.70;;;6.40;99.90;7.20;97295.00;;;;5093718;28;20231;-86
2022/12/25 09:33:04;;;;;;;15.33;7.57;;;5.60;99.90;7.20;97308.00;;;;5103163;28;20227;-85
2022/12/25 09:35:54;;;;;;;15.87;7.23;;;5.70;99.90;7.40;97313.00;;;;5099414;28;20662;-85
2022/12/25 09:38:44;;;;;;;9.60;6.23;;;5.90;99.90;7.70;97311.00;;;;5103426;28;20357;-85
2022/12/25 09:41:39;;;;;;;14.57;9.47;;;6.00;99.90;8.20;97316.00;;;;5115775;28;20218;-85
2022/12/25 09:44:32;;;;;;;9.37;5.90;;;6.20;99.90;8.70;97299.00;;;;5103193;28;20206;-86
2022/12/25 09:47:25;;;;;;;16.33;9.10;;;6.50;99.90;7.80;97298.00;;;;5106084;28;20218;-86
2022/12/25 09:50:19;;;;;;;27.87;13.07;;;6.80;99.90;8.00;97308.00;;;;5109616;28;20239;-86
2022/12/25 09:53:15;;;;;;;16.03;9.53;;;6.70;99.90;8.40;97303.00;;;;5109426;28;20199;-86
2022/12/25 09:56:11;;;;;;;7.57;4.40;;;6.80;99.90;8.80;97303.00;;;;5115577;27;20257;-86
2022/12/25 09:59:00;;;;;;;4.70;3.30;;;7.00;99.90;9.10;97294.00;;;;5099926;28;20204;-85
2022/12/25 10:02:04;;;;;;;6.10;2.90;;;7.20;99.90;9.50;97294.00;;;;5105134;28;20210;-85
2022/12/25 10:05:12;;;;;;;6.03;3.77;;;7.40;99.90;9.80;97295.00;;;;5110918;28;20677;-86
2022/12/25 10:08:14;;;;;;;8.57;4.03;;;7.70;99.90;10.00;97282.00;;;;5107284;27;20222;-87
2022/12/25 10:11:17;;;;;;;6.67;3.50;;;7.90;99.90;10.30;97281.00;;;;5106671;28;20244;-86
2022/12/25 10:14:20;;;;;;;5.57;3.20;;;8.20;99.90;10.40;97292.00;;;;5101505;28;21794;-86
2022/12/25 10:17:29;;;;;;;4.47;3.80;;;8.40;99.90;10.50;97276.00;;;;5110785;27;20202;-86
2022/12/25 10:20:34;;;;;;;10.53;5.20;;;8.60;99.90;10.80;97271.00;;;;5111150;27;20215;-87
2022/12/25 10:23:28;;;;;;;6.20;4.33;;;8.70;99.90;11.40;97270.00;;;;5117061;27;20198;-86
2022/12/25 10:26:23;;;;;;;25.60;12.70;;;9.20;99.90;11.60;97264.00;;;;5102837;27;20203;-86
2022/12/25 10:29:15;;;;;;;11.03;4.43;;;10.10;99.90;11.80;97265.00;;;;5107053;27;20214;-86
2022/12/25 10:32:04;;;;;;;10.03;3.83;;;11.20;99.90;12.40;97259.00;;;;5121178;27;20692;-87
2022/12/25 10:34:53;;;;;;;5.90;3.93;;;12.00;99.90;12.60;97263.00;;;;5109174;27;20208;-86
2022/12/25 10:37:45;;;;;;;5.77;2.90;;;12.60;99.90;13.10;97257.00;;;;5105060;27;20203;-86
2022/12/25 10:40:44;;;;;;;4.20;2.90;;;13.10;99.90;14.40;97258.00;;;;5119507;27;20218;-86
2022/12/25 10:43:41;;;;;;;8.03;3.20;;;13.90;99.90;14.70;97259.00;;;;5118424;27;20279;-86
2022/12/25 10:46:30;;;;;;;6.63;4.30;;;14.60;99.90;14.80;97253.00;;;;5104775;27;20199;-87
2022/12/25 10:49:22;;;;;;;3.50;3.07;;;15.10;96.70;14.60;97256.00;;;;5109304;27;20264;-86
2022/12/25 10:52:21;;;;;;;5.20;2.97;;;15.20;95.50;14.70;97244.00;;;;5108605;27;20721;-87
2022/12/25 10:55:19;;;;;;;4.00;2.60;;;15.20;94.20;15.20;97253.00;;;;5110748;27;20263;-86
2022/12/25 10:58:20;;;;;;;5.47;2.83;;;15.50;93.20;15.60;97243.00;;;;5111732;27;20685;-86
2022/12/25 11:01:10;;;;;;;12.50;3.50;;;15.80;93.20;15.20;97246.00;;;;5111871;27;20218;-86
2022/12/25 11:03:59;;;;;;;9.50;3.73;;;15.70;91.20;14.30;97243.00;;;;5107730;27;20187;-87
2022/12/25 11:07:08;;;;;;;4.70;2.53;;;15.60;90.00;14.10;97233.00;;;;5110576;27;20207;-87
2022/12/25 11:10:03;;;;;;;5.90;3.07;;;15.40;90.50;12.80;97236.00;;;;5108955;27;20211;-87
2022/12/25 11:12:53;;;;;;;8.37;3.87;;;15.00;90.10;13.90;97239.00;;;;5110006;27;20202;-86
2022/12/25 11:15:44;;;;;;;3.93;2.50;;;14.60;90.70;14.40;97237.00;;;;5108802;27;20599;-86
2022/12/25 11:18:45;;;;;;;9.13;3.63;;;14.50;91.50;14.70;97239.00;;;;5103092;27;20707;-86
2022/12/25 11:21:37;;;;;;;5.50;3.30;;;14.60;91.00;15.60;97225.00;;;;5111183;27;20233;-86
2022/12/25 11:24:28;;;;;;;4.03;2.97;;;14.90;91.50;15.90;97213.00;;;;5113354;27;20205;-86
2022/12/25 11:27:27;;;;;;;6.90;3.13;;;15.50;90.70;16.00;97206.00;;;;5108542;27;20191;-86
2022/12/25 11:30:16;;;;;;;6.70;2.73;;;16.00;88.70;16.50;97219.00;;;;5111841;27;20203;-87
2022/12/25 11:33:12;;;;;;;3.90;2.87;;;16.30;88.40;17.00;97215.00;;;;5101559;28;20666;-87
2022/12/25 11:36:09;;;;;;;5.17;2.30;;;16.70;85.60;16.70;97211.00;;;;5103450;28;20210;-85
2022/12/25 11:39:05;;;;;;;3.97;2.90;;;17.10;83.90;16.40;97201.00;;;;5107138;28;20198;-86
2022/12/25 11:42:02;;;;;;;6.63;2.93;;;17.00;82.40;17.30;97201.00;;;;5108649;27;20226;-87
2022/12/25 11:44:56;;;;;;;5.00;2.80;;;17.10;83.30;17.30;97192.00;;;;5105231;27;20745;-87
2022/12/25 11:47:50;;;;;;;5.07;2.63;;;17.00;82.40;18.10;97202.00;;;;5104922;27;20230;-87
2022/12/25 11:50:42;;;;;;;9.70;4.43;;;17.40;82.10;17.60;97202.00;;;;5109051;28;20222;-87
2022/12/25 11:53:44;;;;;;;8.50;5.03;;;17.30;79.70;17.60;97204.00;;;;5111417;28;20199;-87
2022/12/25 11:56:33;;;;;;;9.43;3.03;;;17.30;80.20;17.70;97204.00;;;;5110073;28;20198;-87
2022/12/25 11:59:28;;;;;;;3.47;2.40;;;17.30;79.20;17.10;97209.00;;;;5109505;27;20199;-86
2022/12/25 12:02:28;;;;;;;3.77;2.37;;;17.00;78.50;17.10;97199.00;;;;5098170;27;20219;-87
2022/12/25 12:05:24;;;;;;;6.60;2.40;;;16.80;78.80;16.90;97183.00;;;;5121318;27;20201;-86
2022/12/25 12:08:14;;;;;;;3.90;2.27;;;16.40;80.20;17.50;97183.00;;;;5109989;28;20221;-86
2022/12/25 12:11:17;;;;;;;8.30;2.80;;;16.50;81.10;17.40;97173.00;;;;5112669;27;20893;-87
2022/12/25 12:14:22;;;;;;;3.17;2.57;;;16.50;80.20;18.10;97175.00;;;;5101877;28;20199;-86
2022/12/25 12:17:13;;;;;;;4.03;2.13;;;16.60;80.10;18.20;97182.00;;;;5108483;27;20210;-87
2022/12/25 12:20:13;;;;;;;5.00;2.57;;;16.90;80.50;18.80;97191.00;;;;5118617;27;20203;-87
2022/12/25 12:23:12;;;;;;;3.47;2.83;;;17.20;79.30;18.50;97198.00;;;;5113523;27;20213;-86
2022/12/25 12:26:01;;;;;;;3.47;2.30;;;17.40;77.70;18.70;97185.00;;;;5103731;27;20206;-87
2022/12/25 12:28:55;;;;;;;3.60;2.20;;;17.60;76.50;18.60;97182.00;;;;5105950;27;20710;-87
2022/12/25 12:31:48;;;;;;;5.10;2.27;;;17.60;77.10;19.00;97181.00;;;;5100670;27;20241;-86
2022/12/25 12:34:43;;;;;;;3.50;2.10;;;17.70;77.80;19.60;97173.00;;;;5103897;27;20206;-86
2022/12/25 12:37:35;;;;;;;5.60;2.10;;;17.80;77.30;19.20;97161.00;;;;5106549;28;20206;-87
2022/12/25 12:40:36;;;;;;;9.60;2.63;;;18.40;74.70;20.20;97175.00;;;;5117989;27;20210;-87
2022/12/25 12:43:35;;;;;;;3.47;2.13;;;18.30;75.80;19.50;97186.00;;;;5105818;28;20222;-86
2022/12/25 12:46:27;;;;;;;3.90;1.70;;;18.40;72.10;19.50;97187.00;;;;5108838;27;20240;-87
2022/12/25 12:49:23;;;;;;;3.03;1.90;;;18.40;72.80;19.80;97180.00;;;;5110253;27;20227;-86
2022/12/25 12:52:25;;;;;;;4.33;1.93;;;18.40;72.80;19.70;97173.00;;;;5106851;27;20218;-86
2022/12/25 12:55:15;;;;;;;5.23;1.80;;;18.50;71.40;19.80;97174.00;;;;5106477;27;20202;-86
2022/12/25 12:58:06;;;;;;;5.17;1.77;;;18.40;71.60;20.10;97168.00;;;;5105087;27;20211;-86
2022/12/25 13:01:11;;;;;;;3.07;1.57;;;18.50;72.10;19.70;97170.00;;;;5106949;27;20223;-86
2022/12/25 13:04:34;;;;;;;3.37;1.83;;;18.40;70.70;19.50;97158.00;;;;5114024;27;20195;-86
2022/12/25 13:07:47;;;;;;;5.43;2.47;;;18.10;71.60;18.40;97171.00;;;;5110605;27;20685;-86
2022/12/25 13:10:38;;;;;;;4.43;1.70;;;18.00;72.00;17.00;97168.00;;;;5109796;27;20233;-86
2022/12/25 13:13:34;;;;;;;2.70;1.87;;;17.50;72.70;16.50;97163.00;;;;5117442;27;20190;-86
2022/12/25 13:16:27;;;;;;;3.07;1.57;;;16.80;74.70;17.30;97173.00;;;;5098670;28;20222;-85
2022/12/25 13:19:21;;;;;;;5.57;2.00;;;16.40;75.40;17.70;97181.00;;;;5107693;28;20203;-85
2022/12/25 13:22:24;;;;;;;3.67;2.00;;;16.30;75.90;17.40;97169.00;;;;5105419;28;20266;-86
2022/12/25 13:25:20;;;;;;;3.10;2.20;;;16.10;77.20;17.90;97172.00;;;;5106302;28;20190;-86
2022/12/25 13:28:15;;;;;;;2.77;2.00;;;16.10;78.10;17.60;97171.00;;;;5106513;28;20458;-86
2022/12/25 13:31:09;;;;;;;2.67;2.00;;;16.10;78.10;16.90;97168.00;;;;5110734;27;20226;-86
2022/12/25 13:34:03;;;;;;;3.40;2.03;;;16.20;78.80;17.60;97175.00;;;;5112108;27;20222;-86
2022/12/25 13:36:51;;;;;;;2.43;2.00;;;16.10;79.20;17.70;97172.00;;;;5106727;27;20199;-86
2022/12/25 13:39:50;;;;;;;4.87;2.10;;;16.10;78.60;17.70;97182.00;;;;5110404;27;20292;-87
2022/12/25 13:42:39;;;;;;;2.37;1.60;;;16.10;78.70;16.40;97180.00;;;;5108854;27;20830;-88
2022/12/25 13:45:32;;;;;;;3.10;2.27;;;16.00;79.30;14.80;97184.00;;;;5110509;27;20237;-87
2022/12/25 13:48:22;;;;;;;3.80;2.27;;;15.00;81.00;14.50;97187.00;;;;5114651;27;20541;-87
2022/12/25 13:51:16;;;;;;;3.90;2.37;;;14.30;83.40;14.70;97184.00;;;;5106188;27;20218;-87
2022/12/25 13:54:06;;;;;;;3.80;2.20;;;13.80;85.90;14.80;97188.00;;;;5098632;28;20665;-87
2022/12/25 13:56:56;;;;;;;4.77;2.60;;;13.50;87.60;14.80;97182.00;;;;5113162;28;20646;-86
2022/12/25 13:59:45;;;;;;;3.77;2.73;;;13.40;88.80;14.40;97168.00;;;;5111626;28;20571;-87
2022/12/25 14:02:37;;;;;;;3.60;2.20;;;13.20;89.70;13.80;97172.00;;;;5112162;28;20226;-87
2022/12/25 14:05:30;;;;;;;8.07;2.67;;;13.00;90.30;13.80;97165.00;;;;5109263;28;20611;-87
2022/12/25 14:08:26;;;;;;;2.47;2.27;;;12.70;90.90;14.20;97177.00;;;;5096754;28;20199;-86
2022/12/25 14:11:16;;;;;;;4.67;2.17;;;12.60;91.30;14.40;97178.00;;;;5109803;28;20239;-87
2022/12/25 14:14:15;;;;;;;2.30;1.70;;;12.50;91.70;13.60;97172.00;;;;5111434;28;20195;-87
2022/12/25 14:17:04;;;;;;;3.93;2.93;;;12.50;92.20;12.80;97179.00;;;;5100658;28;20206;-87
2022/12/25 14:19:59;;;;;;;6.10;3.43;;;12.20;93.00;12.40;97166.00;;;;5107163;28;20308;-87
2022/12/25 14:22:53;;;;;;;4.97;3.93;;;11.80;93.90;12.20;97167.00;;;;5110159;28;20199;-86
2022/12/25 14:25:44;;;;;;;7.30;1.87;;;11.40;94.60;12.40;97161.00;;;;5112017;28;20190;-86
2022/12/25 14:28:35;;;;;;;3.20;2.40;;;11.30;95.40;12.60;97166.00;;;;5092116;28;20589;-87
2022/12/25 14:31:28;;;;;;;4.17;2.40;;;11.20;95.80;12.20;97165.00;;;;5104072;28;20408;-86
2022/12/25 14:34:22;;;;;;;3.90;2.23;;;11.00;95.90;11.70;97171.00;;;;5099730;28;20203;-87
2022/12/25 14:37:17;;;;;;;4.83;1.87;;;10.80;96.50;11.10;97162.00;;;;5101316;28;20210;-86
2022/12/25 14:40:21;;;;;;;4.30;1.93;;;10.50;96.80;10.60;97165.00;;;;5109896;28;20190;-86
2022/12/25 14:43:25;;;;;;;3.60;2.53;;;10.10;98.00;10.50;97174.00;;;;5111905;27;20236;-86